Time;durP1;ratioP1;P1;durP2;ratioP2;P2;SDS_P1;SDS_P2;PMS_P1;PMS_P2;Temp;Humidity;BMP_temperature;BMP_pressure;BME280_temperature;BME280_humidity;BME280_pressure;Samples;Min_cycle;Max_cycle;Signal;HPM_P1;HPM_P2
2020/12/07 00:00:26;391939.00;1.31;675.95;0.00;0.00;0.62;;;;;7.40;1.00;;;;;;2268917;61;1257;-87
2020/12/07 00:02:53;247428.00;0.82;427.53;0.00;0.00;0.62;;;;;7.40;1.00;;;;;;2269171;61;1748;-87
2020/12/07 00:05:19;372305.00;1.24;642.20;0.00;0.00;0.62;;;;;7.40;1.00;;;;;;2269227;61;1614;-87
2020/12/07 00:07:47;353467.00;1.18;609.82;0.00;0.00;0.62;;;;;7.40;1.00;;;;;;2269284;61;1128;-87
2020/12/07 00:10:13;434973.00;1.45;749.94;0.00;0.00;0.62;;;;;7.60;1.00;;;;;;2270483;61;1357;-87
2020/12/07 00:12:40;265460.00;0.88;458.54;0.00;0.00;0.62;;;;;7.30;1.00;;;;;;2269542;61;1144;-87
2020/12/07 00:15:07;280921.00;0.94;485.12;0.00;0.00;0.62;;;;;7.20;1.00;;;;;;2269909;61;1160;-87
2020/12/07 00:17:34;450490.00;1.50;776.63;17660.00;0.06;31.22;;;;;7.10;1.00;;;;;;2269738;61;2005;-88
2020/12/07 00:20:00;117234768.00;390.78;65267392.00;0.00;0.00;0.62;;;;;7.60;1.00;;;;;;2270223;61;1348;-88
2020/12/07 00:22:28;318272.00;1.06;549.33;0.00;0.00;0.62;;;;;7.40;1.00;;;;;;2270141;61;1124;-88
2020/12/07 00:24:57;465412.00;1.55;802.30;0.00;0.00;0.62;;;;;7.00;1.00;;;;;;2270957;61;1144;-88
2020/12/07 00:27:26;394349.00;1.31;680.09;0.00;0.00;0.62;;;;;7.10;1.00;;;;;;2274294;61;1121;-88
2020/12/07 00:29:53;386077.00;1.29;665.87;0.00;0.00;0.62;;;;;6.90;1.00;;;;;;2271508;61;1183;-87
2020/12/07 00:32:21;374780.00;1.25;646.45;0.00;0.00;0.62;;;;;7.10;1.00;;;;;;2267204;61;1549;-87
2020/12/07 00:34:48;408397.00;1.36;704.24;0.00;0.00;0.62;;;;;7.30;1.00;;;;;;2271435;61;1161;-89
2020/12/07 00:37:15;413256.00;1.38;712.59;0.00;0.00;0.62;;;;;7.60;1.00;;;;;;2272194;61;2012;-88
2020/12/07 00:39:41;340474.00;1.13;587.49;0.00;0.00;0.62;;;;;7.90;1.00;;;;;;2271094;61;1176;-88
2020/12/07 00:42:09;289506.00;0.97;499.88;0.00;0.00;0.62;;;;;8.20;1.00;;;;;;2264310;61;1354;-88
2020/12/07 00:44:36;354056.00;1.18;610.83;0.00;0.00;0.62;;;;;8.50;1.00;;;;;;2271015;61;960;-89
2020/12/07 00:47:03;378376.00;1.26;652.63;0.00;0.00;0.62;;;;;8.50;1.00;;;;;;2271627;61;1200;-88
2020/12/07 00:49:30;250510.00;0.84;432.83;0.00;0.00;0.62;;;;;9.10;1.00;;;;;;2271904;61;1547;-88
2020/12/07 00:51:57;268439.00;0.89;463.66;0.00;0.00;0.62;;;;;9.00;1.00;;;;;;2272433;61;1273;-88
2020/12/07 00:54:24;233415.00;0.78;403.42;0.00;0.00;0.62;;;;;8.90;1.00;;;;;;2272386;61;1180;-88
2020/12/07 00:56:53;334469.00;1.11;577.17;0.00;0.00;0.62;;;;;9.00;1.00;;;;;;2272489;61;1931;-88
2020/12/07 00:59:21;340103.00;1.13;586.85;0.00;0.00;0.62;;;;;9.10;1.00;;;;;;2272013;61;1137;-88
2020/12/07 01:01:47;261521.00;0.87;451.76;0.00;0.00;0.62;;;;;9.30;1.00;;;;;;2272595;61;1400;-88
2020/12/07 01:04:14;195079.00;0.65;337.45;0.00;0.00;0.62;;;;;9.20;1.00;;;;;;2272572;61;1201;-88
2020/12/07 01:06:44;316583.00;1.06;546.42;0.00;0.00;0.62;;;;;8.90;1.00;;;;;;2272251;61;1275;-89
2020/12/07 01:09:11;120798920.00;402.66;71408744.00;0.00;0.00;0.62;;;;;8.80;1.00;;;;;;2275489;61;1048;-88
2020/12/07 01:11:38;319355.00;1.06;551.19;0.00;0.00;0.62;;;;;9.00;1.00;;;;;;2272738;61;1360;-88
2020/12/07 01:14:05;363630.00;1.21;627.29;0.00;0.00;0.62;;;;;9.30;1.00;;;;;;2272745;61;1043;-88
2020/12/07 01:16:32;331640.00;1.11;572.30;0.00;0.00;0.62;;;;;9.20;1.00;;;;;;2269125;61;1999;-88
2020/12/07 01:18:58;226342.00;0.75;391.26;0.00;0.00;0.62;;;;;9.50;1.00;;;;;;2272646;61;993;-88
2020/12/07 01:21:25;194303.00;0.65;336.12;0.00;0.00;0.62;;;;;9.20;1.00;;;;;;2272726;61;1436;-88
2020/12/07 01:23:51;251876.00;0.84;435.18;0.00;0.00;0.62;;;;;8.50;1.00;;;;;;2272685;61;965;-88
2020/12/07 01:26:18;328885.00;1.10;567.57;0.00;0.00;0.62;;;;;8.40;1.00;;;;;;2272152;61;1654;-89
2020/12/07 01:28:44;248923.00;0.83;430.10;0.00;0.00;0.62;;;;;8.50;1.00;;;;;;2272184;61;1120;-88
2020/12/07 01:31:11;236859.00;0.79;409.35;0.00;0.00;0.62;;;;;8.60;1.00;;;;;;2272661;61;1463;-88
2020/12/07 01:33:38;283809.00;0.95;490.09;0.00;0.00;0.62;;;;;8.90;1.00;;;;;;2272590;61;1044;-88
2020/12/07 01:36:04;254760.00;0.85;440.14;0.00;0.00;0.62;;;;;8.50;1.00;;;;;;2262125;61;1923;-88
2020/12/07 01:38:31;263126.00;0.88;454.52;0.00;0.00;0.62;;;;;8.30;1.00;;;;;;2272721;61;1127;-88
2020/12/07 01:40:57;326418.00;1.09;563.33;0.00;0.00;0.62;;;;;8.50;1.00;;;;;;2272378;61;1358;-87
2020/12/07 01:43:24;301574.00;1.01;520.63;0.00;0.00;0.62;;;;;7.90;1.00;;;;;;2272445;61;1235;-88
2020/12/07 01:45:50;306986.00;1.02;529.93;0.00;0.00;0.62;;;;;7.60;1.00;;;;;;2272721;61;1031;-88
2020/12/07 01:48:17;374371.00;1.25;645.75;0.00;0.00;0.62;;;;;7.80;1.00;;;;;;2272565;61;1067;-88
2020/12/07 01:50:45;261002.00;0.87;450.87;0.00;0.00;0.62;;;;;7.80;1.00;;;;;;2272342;61;1328;-88
2020/12/07 01:53:12;294345.00;0.98;508.20;0.00;0.00;0.62;;;;;7.80;1.00;;;;;;2272136;61;1115;-88
2020/12/07 01:55:40;284317.00;0.95;490.96;0.00;0.00;0.62;;;;;8.20;1.00;;;;;;2272587;61;1112;-88
2020/12/07 01:58:06;265243.00;0.88;458.16;0.00;0.00;0.62;;;;;8.10;1.00;;;;;;2272500;61;1938;-87
2020/12/07 02:00:33;353206.00;1.18;609.37;0.00;0.00;0.62;;;;;7.70;1.00;;;;;;2272303;61;1807;-88
2020/12/07 02:02:59;319373.00;1.06;551.22;0.00;0.00;0.62;;;;;7.80;1.00;;;;;;2272360;61;1124;-87
2020/12/07 02:05:28;253360.00;0.84;437.73;0.00;0.00;0.62;;;;;7.80;1.00;;;;;;2272047;61;1124;-88
2020/12/07 02:08:13;296963.00;0.99;512.70;0.00;0.00;0.62;;;;;8.00;1.00;;;;;;2272587;61;1124;-89
2020/12/07 02:10:40;241603.00;0.81;417.51;0.00;0.00;0.62;;;;;7.80;1.00;;;;;;2271962;61;1419;-88
2020/12/07 02:13:07;302862.00;1.01;522.84;0.00;0.00;0.62;;;;;7.90;1.00;;;;;;2272585;61;1128;-88
2020/12/07 02:15:34;385392.00;1.28;664.69;0.00;0.00;0.62;;;;;7.80;1.00;;;;;;2272101;61;1266;-88
2020/12/07 02:18:00;309624.00;1.03;534.46;0.00;0.00;0.62;;;;;7.90;1.00;;;;;;2271969;61;2018;-88
2020/12/07 02:20:28;281049.00;0.94;485.34;0.00;0.00;0.62;;;;;8.10;1.00;;;;;;2271950;61;1274;-88
2020/12/07 02:22:55;117874760.00;392.92;66343092.00;0.00;0.00;0.62;;;;;8.20;1.00;;;;;;2271966;61;1000;-87
2020/12/07 02:25:22;268724.00;0.90;464.15;0.00;0.00;0.62;;;;;8.50;1.00;;;;;;2272140;61;1117;-88
2020/12/07 02:27:49;202832.00;0.68;350.80;0.00;0.00;0.62;;;;;8.70;1.00;;;;;;2272216;61;972;-88
2020/12/07 02:30:16;271461.00;0.90;468.86;0.00;0.00;0.62;;;;;9.10;1.00;;;;;;2271724;61;1242;-88
2020/12/07 02:32:43;203350.00;0.68;351.69;0.00;0.00;0.62;;;;;8.80;1.00;;;;;;2271766;61;1187;-88
2020/12/07 02:35:12;289876.00;0.97;500.52;0.00;0.00;0.62;;;;;8.90;1.00;;;;;;2268392;61;1172;-88
2020/12/07 02:37:40;278967.00;0.93;481.76;0.00;0.00;0.62;;;;;9.00;1.00;;;;;;2268138;61;2010;-88
2020/12/07 02:40:07;338137.00;1.13;583.47;0.00;0.00;0.62;;;;;9.50;1.00;;;;;;2268503;61;1367;-89
2020/12/07 02:42:35;264184.00;0.88;456.34;0.00;0.00;0.62;;;;;9.20;1.00;;;;;;2271638;61;1248;-88
2020/12/07 02:45:03;253373.00;0.84;437.75;0.00;0.00;0.62;;;;;9.10;1.00;;;;;;2267501;61;1086;-88
2020/12/07 02:47:29;213819.00;0.71;369.71;0.00;0.00;0.62;;;;;9.10;1.00;;;;;;2266855;61;1069;-88
2020/12/07 02:49:57;202214.00;0.67;349.73;0.00;0.00;0.62;;;;;9.50;1.00;;;;;;2263351;61;1066;-88
2020/12/07 02:52:24;390979.00;1.30;674.30;48775.00;0.16;85.07;;;;;9.70;1.00;;;;;;2263469;61;1089;-88
2020/12/07 02:54:53;236751.00;0.79;409.16;0.00;0.00;0.62;;;;;9.60;1.00;;;;;;2263330;61;1164;-88
2020/12/07 02:57:21;322593.00;1.08;556.76;0.00;0.00;0.62;;;;;9.40;1.00;;;;;;2263192;61;1927;-88
2020/12/07 02:59:49;167469.00;0.56;289.91;0.00;0.00;0.62;;;;;9.30;1.00;;;;;;2263410;61;933;-88
2020/12/07 03:05:39;536185.00;1.79;924.15;84595.00;0.28;146.97;;;;;9.10;1.00;;;;;;2272152;61;713;-88
2020/12/07 03:08:06;603554.00;2.01;1040.36;76839.00;0.26;133.58;;;;;9.30;1.00;;;;;;2272128;61;1143;-88
2020/12/07 03:10:33;461933.00;1.54;796.31;83197.00;0.28;144.56;;;;;9.60;1.00;;;;;;2271988;61;1263;-88
2020/12/07 03:13:00;539890.00;1.80;930.53;83939.00;0.28;145.84;;;;;9.40;1.00;;;;;;2272069;61;1155;-89
2020/12/07 03:15:26;516784.00;1.72;890.73;80614.00;0.27;140.10;;;;;9.60;1.00;;;;;;2272288;61;1071;-88
2020/12/07 03:17:53;453605.00;1.51;781.98;93988.00;0.31;163.19;;;;;9.80;1.00;;;;;;2272212;61;1991;-89
2020/12/07 03:20:19;528682.00;1.76;911.22;104098.00;0.35;180.64;;;;;9.80;1.00;;;;;;2272431;61;1408;-89
2020/12/07 03:22:45;563594.00;1.88;971.40;81080.00;0.27;140.90;;;;;9.70;1.00;;;;;;2268671;61;942;-88
2020/12/07 03:25:12;554299.00;1.85;955.37;86898.00;0.29;150.95;;;;;9.50;1.00;;;;;;2272396;61;1071;-89
2020/12/07 03:27:39;595062.00;1.98;1025.69;78688.00;0.26;136.77;;;;;9.30;1.00;;;;;;2272505;61;1058;-88
2020/12/07 03:30:06;392708.00;1.31;677.27;78525.00;0.26;136.49;;;;;9.30;1.00;;;;;;2272491;61;1292;-89
2020/12/07 03:32:32;650916.00;2.17;1122.22;83327.00;0.28;144.78;;;;;9.50;1.00;;;;;;2272279;61;1047;-89
2020/12/07 03:34:59;572866.00;1.91;987.39;88589.00;0.30;153.87;;;;;9.10;1.00;;;;;;2272511;61;929;-88
2020/12/07 03:37:25;733773.00;2.45;1265.86;90353.00;0.30;156.92;;;;;8.90;1.00;;;;;;2265379;61;1919;-89
2020/12/07 03:39:52;522017.00;1.74;899.74;85116.00;0.28;147.87;;;;;9.30;1.00;;;;;;2272491;61;931;-88
2020/12/07 03:42:18;560167.00;1.87;965.49;79208.00;0.26;137.67;;;;;9.70;1.00;;;;;;2272498;61;1317;-89
2020/12/07 03:44:45;543385.00;1.81;936.56;86436.00;0.29;150.15;;;;;9.90;1.00;;;;;;2272392;61;1661;-89
2020/12/07 03:47:12;641383.00;2.14;1105.73;81262.00;0.27;141.22;;;;;9.90;1.00;;;;;;2272445;61;1145;-88
2020/12/07 03:49:38;581334.00;1.94;1002.00;82467.00;0.27;143.30;;;;;10.00;1.00;;;;;;2271919;61;982;-88
2020/12/07 03:52:05;436869.00;1.46;753.20;80855.00;0.27;140.51;;;;;10.20;1.00;;;;;;2271947;61;1440;-88
2020/12/07 03:54:31;508776.00;1.70;876.93;101819.00;0.34;176.71;;;;;9.80;1.00;;;;;;2271932;61;1138;-88
2020/12/07 03:56:58;603559.00;2.01;1040.37;55602.00;0.19;96.87;;;;;10.10;1.00;;;;;;2271819;61;2009;-88
2020/12/07 03:59:24;506414.00;1.69;872.87;64077.00;0.21;111.52;;;;;10.20;1.00;;;;;;2271904;61;1158;-88
2020/12/07 04:01:51;569024.00;1.90;980.76;75145.00;0.25;130.65;;;;;10.10;1.00;;;;;;2271753;61;1312;-88
2020/12/07 04:04:22;519320.00;1.73;895.09;87712.00;0.29;152.36;;;;;9.80;1.00;;;;;;2271877;61;1071;-87
2020/12/07 04:06:50;379955.00;1.27;655.35;90828.00;0.30;157.74;;;;;9.60;1.00;;;;;;2271957;61;1156;-89
2020/12/07 04:09:17;467945.00;1.56;806.65;82776.00;0.28;143.83;;;;;9.50;1.00;;;;;;2272390;61;1043;-89
2020/12/07 04:11:44;535990.00;1.79;923.81;76013.00;0.25;132.15;;;;;9.30;1.00;;;;;;2272350;61;1317;-87
2020/12/07 04:14:10;549077.00;1.83;946.37;86331.00;0.29;149.97;;;;;9.20;1.00;;;;;;2268631;61;1002;-88
2020/12/07 04:16:37;512897.00;1.71;884.03;90561.00;0.30;157.28;;;;;9.20;1.00;;;;;;2272340;61;1996;-87
2020/12/07 04:19:04;446742.00;1.49;770.18;87898.00;0.29;152.68;;;;;9.20;1.00;;;;;;2272304;61;1128;-88
2020/12/07 04:21:30;462435.00;1.54;797.17;89038.00;0.30;154.65;;;;;9.10;1.00;;;;;;2272228;61;1392;-89
2020/12/07 04:23:57;467989.00;1.56;806.73;90669.00;0.30;157.46;;;;;9.60;1.00;;;;;;2272407;61;998;-89
2020/12/07 04:26:23;428811.00;1.43;739.34;88301.00;0.29;153.37;;;;;9.80;1.00;;;;;;2272213;61;1053;-88
2020/12/07 04:28:50;403473.00;1.34;695.78;92199.00;0.31;160.10;;;;;9.80;1.00;;;;;;2272365;61;1040;-88
2020/12/07 04:31:16;485354.00;1.62;836.61;89340.00;0.30;155.17;;;;;9.30;1.00;;;;;;2272320;61;1362;-88
2020/12/07 04:33:43;472228.00;1.57;814.02;92011.00;0.31;159.78;;;;;9.10;1.00;;;;;;2272333;61;1005;-88
2020/12/07 04:36:10;451341.00;1.50;778.09;84898.00;0.28;147.50;;;;;9.00;1.00;;;;;;2272301;61;993;-89
2020/12/07 04:38:37;405407.00;1.35;699.10;82389.00;0.27;143.16;;;;;9.30;1.00;;;;;;2272239;61;1970;-88
2020/12/07 04:41:04;432399.00;1.44;745.51;97917.00;0.33;169.98;;;;;9.20;1.00;;;;;;2272280;61;1332;-88
2020/12/07 04:43:32;389024.00;1.30;670.94;88184.00;0.29;153.17;;;;;9.30;1.00;;;;;;2272276;61;1121;-89
2020/12/07 04:45:59;414306.00;1.38;714.40;78842.00;0.26;137.04;;;;;9.20;1.00;;;;;;2272319;61;1002;-88
2020/12/07 04:48:26;384497.00;1.28;663.16;83941.00;0.28;145.84;;;;;9.20;1.00;;;;;;2272195;61;1149;-88
2020/12/07 04:50:55;401182.00;1.34;691.84;88666.00;0.30;154.00;;;;;9.10;1.00;;;;;;2267695;61;1315;-88
2020/12/07 04:53:22;504265.00;1.68;869.17;81449.00;0.27;141.54;;;;;9.30;1.00;;;;;;2267745;61;1065;-88
2020/12/07 04:55:49;395202.00;1.32;681.56;87740.00;0.29;152.41;;;;;9.30;1.00;;;;;;2267559;61;1120;-88
2020/12/07 04:58:16;449821.00;1.50;775.47;90418.00;0.30;157.03;;;;;9.60;1.00;;;;;;2267686;61;1934;-89
2020/12/07 05:00:43;416857.00;1.39;718.79;90504.00;0.30;157.18;;;;;9.90;1.00;;;;;;2267533;61;1314;-88
2020/12/07 05:03:09;466932.00;1.56;804.91;96762.00;0.32;167.98;;;;;10.20;1.00;;;;;;2267401;61;1207;-88
2020/12/07 05:05:36;323778.00;1.08;558.79;88004.00;0.29;152.86;;;;;10.60;1.00;;;;;;2267562;61;1180;-90
2020/12/07 05:08:03;389719.00;1.30;672.13;94029.00;0.31;163.26;;;;;11.20;1.00;;;;;;2268279;61;1038;-89
2020/12/07 05:10:34;400361.00;1.33;690.43;91050.00;0.30;158.12;;;;;11.80;1.00;;;;;;2272167;61;1455;-88
2020/12/07 05:13:13;415882.00;1.39;717.11;85869.00;0.29;149.17;;;;;12.10;1.00;;;;;;2271725;61;981;-89
2020/12/07 05:15:40;768403.00;2.56;1326.07;55509.00;0.19;96.71;;;;;12.10;1.00;;;;;;2272212;61;1019;-90
2020/12/07 05:18:07;437852.00;1.46;754.89;90066.00;0.30;156.42;;;;;12.20;1.00;;;;;;2271679;61;2006;-89
2020/12/07 05:20:34;490351.00;1.63;845.21;89910.00;0.30;156.15;;;;;12.20;1.00;;;;;;2274961;61;1367;-89
2020/12/07 05:23:00;552852.00;1.84;952.88;73412.00;0.24;127.66;;;;;12.20;1.00;;;;;;2272184;61;1003;-89
2020/12/07 05:25:28;437509.00;1.46;754.30;88072.00;0.29;152.98;;;;;12.40;1.00;;;;;;2272019;61;1775;-89
2020/12/07 05:27:58;452256.00;1.51;779.66;50683.00;0.17;88.37;;;;;12.50;1.00;;;;;;2271646;61;1002;-90
2020/12/07 05:30:27;519349.00;1.73;895.14;87350.00;0.29;151.73;;;;;12.60;1.00;;;;;;2271626;61;1313;-90
2020/12/07 05:32:53;464474.00;1.55;800.68;91680.00;0.31;159.21;;;;;12.70;1.00;;;;;;2271921;61;1049;-89
2020/12/07 05:35:20;421180.00;1.40;726.22;82308.00;0.27;143.02;;;;;12.70;1.00;;;;;;2272363;61;1102;-90
2020/12/07 05:37:46;381693.00;1.27;658.34;76978.00;0.26;133.82;;;;;12.60;1.00;;;;;;2272212;61;2002;-90
2020/12/07 05:40:14;415805.00;1.39;716.98;77655.00;0.26;134.99;;;;;12.60;1.00;;;;;;2265481;61;1406;-90
2020/12/07 05:42:41;372517.00;1.24;642.56;63275.00;0.21;110.14;;;;;12.60;1.00;;;;;;2272258;61;1100;-89
2020/12/07 05:45:10;375109.00;1.25;647.02;89415.00;0.30;155.30;;;;;12.50;1.00;;;;;;2268116;61;940;-88
2020/12/07 05:47:39;586726.00;1.96;1011.31;88078.00;0.29;152.99;;;;;12.50;1.00;;;;;;2268223;61;1111;-90
2020/12/07 05:50:08;465071.00;1.55;801.71;81932.00;0.27;142.37;;;;;12.60;1.00;;;;;;2268274;61;1285;-90
2020/12/07 05:52:47;483228.00;1.61;832.95;78964.00;0.26;137.25;;;;;12.60;1.00;;;;;;2268193;61;973;-90
2020/12/07 05:55:15;488800.00;1.63;842.54;73130.00;0.24;127.17;;;;;12.60;1.00;;;;;;2268225;61;1619;-90
2020/12/07 05:57:52;469802.00;1.57;809.85;85481.00;0.28;148.50;;;;;12.70;1.00;;;;;;2267739;61;1907;-89
2020/12/07 06:00:24;667197.00;2.22;1150.40;88734.00;0.30;154.12;;;;;12.60;1.00;;;;;;2268134;61;1392;-90
2020/12/07 06:02:52;952415.00;3.17;1648.37;79110.00;0.26;137.50;;;;;12.50;1.00;;;;;;2269841;61;994;-89
2020/12/07 06:05:20;889116.00;2.96;1537.01;106117.00;0.35;184.13;;;;;12.40;1.00;;;;;;2272713;61;1023;-89
2020/12/07 06:07:55;553908.00;1.85;954.70;65463.00;0.22;113.92;;;;;12.40;1.00;;;;;;2272718;61;1085;-90
2020/12/07 06:10:27;765623.00;2.55;1321.23;15652.00;0.05;27.74;;;;;12.50;1.00;;;;;;2272670;61;1455;-90
2020/12/07 06:12:57;656387.00;2.19;1131.69;17666.00;0.06;31.23;;;;;12.50;1.00;;;;;;2272139;61;1113;-91
2020/12/07 06:15:26;919487.00;3.06;1590.37;69379.00;0.23;120.69;;;;;12.60;1.00;;;;;;2272681;61;1047;-90
2020/12/07 06:17:53;800424.00;2.67;1381.86;41528.00;0.14;72.53;;;;;12.70;1.00;;;;;;2272451;61;1924;-89
2020/12/07 06:20:30;706544.00;2.36;1218.59;118080.00;0.39;204.77;;;;;12.70;1.00;;;;;;2272645;61;1368;-90
2020/12/07 06:22:58;561969.00;1.87;968.60;68247.00;0.23;118.73;;;;;12.70;1.00;;;;;;2272609;61;1004;-91
2020/12/07 06:25:30;419634.00;1.40;723.56;87179.00;0.29;151.44;;;;;12.70;1.00;;;;;;2272587;61;1184;-90
2020/12/07 06:28:02;828858.00;2.76;1431.50;83802.00;0.28;145.60;;;;;12.40;1.00;;;;;;2272182;61;972;-89
2020/12/07 06:30:38;653610.00;2.18;1126.88;117117.00;0.39;203.11;;;;;12.30;1.00;;;;;;2272628;61;1348;-89
2020/12/07 06:33:06;1390745.00;4.64;2439.17;146220.00;0.49;253.29;;;;;12.20;1.00;;;;;;2272172;61;987;-89
2020/12/07 06:35:39;715197.00;2.38;1233.60;113693.00;0.38;197.20;;;;;12.20;1.00;;;;;;2275537;61;1043;-90
2020/12/07 06:38:06;787923.00;2.63;1360.07;139858.00;0.47;242.33;;;;;12.30;1.00;;;;;;2272611;61;1977;-89
2020/12/07 06:40:36;583415.00;1.94;1005.59;70724.00;0.24;123.01;;;;;12.40;1.00;;;;;;2265489;61;1392;-90
2020/12/07 06:43:16;496825.00;1.66;856.36;90952.00;0.30;157.95;;;;;12.50;1.00;;;;;;2272070;61;1039;-92
2020/12/07 06:45:44;563512.00;1.88;971.26;86493.00;0.29;150.25;;;;;12.40;1.00;;;;;;2272554;61;941;-90
2020/12/07 06:48:12;540085.00;1.80;930.87;72829.00;0.24;126.65;;;;;12.50;1.00;;;;;;2272630;61;1019;-90
2020/12/07 06:50:40;228105.00;0.76;394.29;0.00;0.00;0.62;;;;;12.40;1.00;;;;;;2272554;61;1285;-91
2020/12/07 06:53:40;245320.00;0.82;423.90;0.00;0.00;0.62;;;;;12.50;1.00;;;;;;2272529;61;1050;-90
2020/12/07 06:56:08;485607.00;1.62;837.05;83223.00;0.28;144.60;;;;;12.50;1.00;;;;;;2272076;61;1110;-90
2020/12/07 06:58:36;446015.00;1.49;768.93;85584.00;0.29;148.68;;;;;12.50;1.00;;;;;;2272564;61;2001;-90
2020/12/07 07:01:12;415316.00;1.38;716.14;0.00;0.00;0.62;;;;;12.50;1.00;;;;;;2272484;61;1438;-91
2020/12/07 07:03:59;266823.00;0.89;460.88;0.00;0.00;0.62;;;;;12.60;1.00;;;;;;2272615;61;1000;-89
2020/12/07 07:06:26;437089.00;1.46;753.58;80331.00;0.27;139.61;;;;;12.60;1.00;;;;;;2259939;61;1203;-91
2020/12/07 07:08:53;210551.00;0.70;364.08;0.00;0.00;0.62;;;;;12.60;1.00;;;;;;2259912;61;1050;-91
2020/12/07 07:11:20;368797.00;1.23;636.17;0.00;0.00;0.62;;;;;12.60;1.00;;;;;;2259721;61;1207;-91
2020/12/07 07:13:48;404407.00;1.35;697.38;0.00;0.00;0.62;;;;;12.60;1.00;;;;;;2259758;61;1056;-90
2020/12/07 07:16:16;282547.00;0.94;487.92;0.00;0.00;0.62;;;;;12.60;1.00;;;;;;2260005;61;1003;-90
2020/12/07 07:18:43;427053.00;1.42;736.32;0.00;0.00;0.62;;;;;12.30;1.00;;;;;;2259864;61;2066;-90
2020/12/07 07:21:09;356533.00;1.19;615.09;0.00;0.00;0.62;;;;;12.20;1.00;;;;;;2259920;61;1505;-91
2020/12/07 07:23:40;348399.00;1.16;601.11;0.00;0.00;0.62;;;;;12.20;1.00;;;;;;2259954;61;1036;-91
2020/12/07 07:26:18;298508.00;1.00;515.36;0.00;0.00;0.62;;;;;12.20;1.00;;;;;;2247936;61;929;-91
2020/12/07 07:28:46;419421.00;1.40;723.19;0.00;0.00;0.62;;;;;12.10;1.00;;;;;;2247877;61;1039;-91
2020/12/07 07:31:14;305468.00;1.02;527.32;0.00;0.00;0.62;;;;;11.70;1.00;;;;;;2239945;61;1416;-90
2020/12/07 07:33:41;338860.00;1.13;584.71;0.00;0.00;0.62;;;;;11.60;1.00;;;;;;2240019;61;1036;-90
2020/12/07 07:36:08;296662.00;0.99;512.18;0.00;0.00;0.62;;;;;11.50;1.00;;;;;;2240046;61;1012;-91
2020/12/07 07:38:34;450836.00;1.50;777.22;0.00;0.00;0.62;;;;;11.70;1.00;;;;;;2236717;61;1996;-90
2020/12/07 07:41:01;336411.00;1.12;580.51;0.00;0.00;0.62;;;;;11.80;1.00;;;;;;2233530;62;1417;-90
2020/12/07 07:43:28;413585.00;1.38;713.16;0.00;0.00;0.62;;;;;11.80;1.00;;;;;;2252704;61;1060;-90
2020/12/07 07:45:59;386413.00;1.29;666.45;0.00;0.00;0.62;;;;;11.80;1.00;;;;;;2267957;61;1719;-89
2020/12/07 07:48:32;310983.00;1.04;536.80;0.00;0.00;0.62;;;;;11.90;1.00;;;;;;2271798;61;985;-90
2020/12/07 07:54:14;449635.00;1.50;775.15;5244.00;0.02;9.71;;;;;12.00;1.00;;;;;;2272485;61;743;-91
2020/12/07 08:16:19;377500.00;1.26;651.13;0.00;0.00;0.62;;;;;11.70;1.00;;;;;;2247745;61;863;-90
2020/12/07 08:18:47;514118.00;1.71;886.13;0.00;0.00;0.62;;;;;11.70;1.00;;;;;;2240999;61;1923;-90
2020/12/07 08:21:26;409572.00;1.37;706.26;0.00;0.00;0.62;;;;;11.60;1.00;;;;;;2247629;61;1353;-89
2020/12/07 08:23:55;496739.00;1.66;856.21;0.00;0.00;0.62;;;;;11.00;1.00;;;;;;2247659;61;1115;-89
2020/12/07 08:26:23;456441.00;1.52;786.86;0.00;0.00;0.62;;;;;11.10;1.00;;;;;;2237866;61;1090;-89
2020/12/07 08:28:53;496891.00;1.66;856.47;0.00;0.00;0.62;;;;;11.30;1.00;;;;;;2235689;61;1024;-91
2020/12/07 08:31:20;498586.00;1.66;859.39;0.00;0.00;0.62;;;;;11.30;1.00;;;;;;2235616;61;1696;-90
2020/12/07 08:33:59;500763.00;1.67;863.14;53641.00;0.18;93.48;;;;;11.20;1.00;;;;;;2235813;62;1055;-88
2020/12/07 08:36:27;472634.00;1.58;814.72;0.00;0.00;0.62;;;;;11.10;1.00;;;;;;2234811;61;971;-89
2020/12/07 08:38:55;424442.00;1.41;731.83;0.00;0.00;0.62;;;;;11.10;1.00;;;;;;2235828;61;1920;-89
2020/12/07 08:41:23;294740.00;0.98;508.88;0.00;0.00;0.62;;;;;11.40;1.00;;;;;;2238814;61;1350;-90
2020/12/07 08:43:53;1149465.00;3.83;1999.11;74520.00;0.25;129.57;;;;;11.70;1.00;;;;;;2235753;61;1038;-88
2020/12/07 08:46:22;1544402.00;5.15;2726.95;202982.00;0.68;351.06;;;;;11.80;1.00;;;;;;2236720;61;1011;-90
2020/12/07 08:48:49;1111916.00;3.71;1931.75;68668.00;0.23;119.46;;;;;11.40;1.00;;;;;;2243541;61;966;-89
2020/12/07 08:51:19;1295402.00;4.32;2263.69;114694.00;0.38;198.93;;;;;11.20;1.00;;;;;;2247394;61;1390;-89
2020/12/07 08:53:46;913193.00;3.04;1579.30;48885.00;0.16;85.26;;;;;11.30;1.00;;;;;;2249529;61;966;-89
2020/12/07 08:56:13;1054313.00;3.51;1828.91;51973.00;0.17;90.60;;;;;11.30;1.00;;;;;;2255500;61;974;-90
2020/12/07 08:58:40;1249160.00;4.16;2179.36;0.00;0.00;0.62;;;;;11.10;1.00;;;;;;2255482;61;1926;-88
2020/12/07 09:01:07;1301259.00;4.34;2274.41;212302.00;0.71;367.10;;;;;11.40;1.00;;;;;;2256094;61;1673;-89
2020/12/07 09:03:38;1283521.00;4.28;2241.98;180099.00;0.60;311.66;;;;;11.60;1.00;;;;;;2259422;61;1027;-90
2020/12/07 09:06:06;1130704.00;3.77;1965.42;65012.00;0.22;113.14;;;;;11.60;1.00;;;;;;2262827;61;944;-90
2020/12/07 09:08:33;1309627.00;4.37;2289.73;103848.00;0.35;180.21;;;;;11.30;1.00;;;;;;2260270;61;1055;-88
2020/12/07 09:11:00;1229211.00;4.10;2143.12;126683.00;0.42;219.61;;;;;11.50;1.00;;;;;;2260218;61;1472;-90
2020/12/07 09:13:27;1579169.00;5.26;2792.99;153099.00;0.51;265.15;;;;;11.80;1.00;;;;;;2265520;61;986;-90
2020/12/07 09:15:53;1497865.00;4.99;2639.10;152541.00;0.51;264.19;;;;;12.00;1.00;;;;;;2272904;61;975;-89
2020/12/07 09:18:20;853294.00;2.84;1474.23;130827.00;0.44;226.76;;;;;12.10;1.00;;;;;;2272422;61;2002;-90
2020/12/07 09:20:48;610472.00;2.03;1052.31;77910.00;0.26;135.43;;;;;12.30;1.00;;;;;;2275747;61;1289;-89
2020/12/07 09:23:14;418367.00;1.39;721.38;88002.00;0.29;152.86;;;;;12.00;1.00;;;;;;2275730;61;1021;-90
2020/12/07 09:25:41;510088.00;1.70;879.19;93080.00;0.31;161.63;;;;;11.00;1.00;;;;;;2272858;61;1011;-89
2020/12/07 09:28:08;117655688.00;392.19;65973556.00;100879.00;0.34;175.09;;;;;10.70;1.00;;;;;;2268957;61;1013;-90
2020/12/07 09:30:36;601836.00;2.01;1037.39;86482.00;0.29;150.23;;;;;11.00;1.00;;;;;;2272640;61;1265;-90
2020/12/07 09:33:02;567124.00;1.89;977.49;88314.00;0.29;153.40;;;;;11.50;1.00;;;;;;2272887;61;1105;-88
2020/12/07 09:35:28;588981.00;1.96;1015.20;87695.00;0.29;152.33;;;;;11.30;1.00;;;;;;2272718;61;1032;-89
2020/12/07 09:37:56;499579.00;1.67;861.10;99077.00;0.33;171.98;;;;;10.90;1.00;;;;;;2265757;61;1916;-90
2020/12/07 09:40:23;625260.00;2.08;1077.86;81053.00;0.27;140.86;;;;;10.70;1.00;;;;;;2272677;61;1325;-88
2020/12/07 09:42:49;338053.00;1.13;583.33;0.00;0.00;0.62;;;;;11.00;1.00;;;;;;2272735;61;1041;-87
2020/12/07 09:45:15;402963.00;1.34;694.90;0.00;0.00;0.62;;;;;11.40;1.00;;;;;;2272410;61;1191;-87
2020/12/07 09:47:43;404327.00;1.35;697.24;0.00;0.00;0.62;;;;;11.80;1.00;;;;;;2263936;61;1081;-91
2020/12/07 09:50:10;493371.00;1.64;850.41;72175.00;0.24;125.52;;;;;11.90;1.00;;;;;;2264179;61;1302;-88
2020/12/07 09:52:37;664098.00;2.21;1145.03;78992.00;0.26;137.30;;;;;12.10;1.00;;;;;;2260896;61;992;-88
2020/12/07 09:55:04;603466.00;2.01;1040.20;75349.00;0.25;131.00;;;;;12.40;1.00;;;;;;2263995;61;1162;-88
2020/12/07 09:57:32;496488.00;1.65;855.78;81273.00;0.27;141.24;;;;;12.70;1.00;;;;;;2264153;61;2005;-89
2020/12/07 09:59:59;564014.00;1.88;972.12;60905.00;0.20;106.04;;;;;12.80;1.00;;;;;;2264136;61;1287;-92
2020/12/07 10:02:26;603518.00;2.01;1040.29;71253.00;0.24;123.93;;;;;12.50;1.00;;;;;;2264164;61;1062;-91
2020/12/07 10:04:53;539932.00;1.80;930.61;79906.00;0.27;138.87;;;;;12.50;1.00;;;;;;2265370;61;1052;-90
2020/12/07 10:07:20;466929.00;1.56;804.91;94494.00;0.31;164.07;;;;;12.70;1.00;;;;;;2267948;61;1111;-88
2020/12/07 10:09:46;598927.00;2.00;1032.37;106486.00;0.35;184.77;;;;;12.80;1.00;;;;;;2267556;61;1533;-89